sensor_id;sensor_type;location;lat;lon;timestamp;pressure;altitude;pressure_sealevel;temperature;humidity
24045;BME280;26257;49.442;8.422;2022-08-30T00:00:27;100611.28;;;25.78;35.25
24045;BME280;26257;49.442;8.422;2022-08-30T00:03:12;100599.75;;;25.92;34.66
24045;BME280;26257;49.442;8.422;2022-08-30T00:05:41;100609.78;;;25.54;35.44
24045;BME280;26257;49.442;8.422;2022-08-30T00:08:07;100609.03;;;25.69;35.19
24045;BME280;26257;49.442;8.422;2022-08-30T00:10:33;100612.94;;;25.26;36.36
24045;BME280;26257;49.442;8.422;2022-08-30T00:12:59;100617.53;;;25.05;36.72
24045;BME280;26257;49.442;8.422;2022-08-30T00:15:25;100620.25;;;24.85;37.46
24045;BME280;26257;49.442;8.422;2022-08-30T00:17:51;100619.25;;;25.06;36.83
24045;BME280;26257;49.442;8.422;2022-08-30T00:20:23;100624.41;;;24.72;37.69
24045;BME280;26257;49.442;8.422;2022-08-30T00:22:49;100608.88;;;24.77;37.76
24045;BME280;26257;49.442;8.422;2022-08-30T00:25:15;100611.66;;;25.14;36.88
24045;BME280;26257;49.442;8.422;2022-08-30T00:27:41;100608.50;;;24.86;37.17
24045;BME280;26257;49.442;8.422;2022-08-30T00:30:08;100611.56;;;24.79;37.58
24045;BME280;26257;49.442;8.422;2022-08-30T00:32:34;100609.78;;;24.58;38.13
24045;BME280;26257;49.442;8.422;2022-08-30T00:35:00;100615.84;;;24.83;37.24
24045;BME280;26257;49.442;8.422;2022-08-30T00:37:25;100610.53;;;24.81;37.55
24045;BME280;26257;49.442;8.422;2022-08-30T00:39:51;100616.06;;;24.38;38.14
24045;BME280;26257;49.442;8.422;2022-08-30T00:42:18;100617.47;;;24.67;37.55
24045;BME280;26257;49.442;8.422;2022-08-30T00:44:44;100615.66;;;24.67;37.43
24045;BME280;26257;49.442;8.422;2022-08-30T00:47:10;100616.88;;;24.80;37.36
24045;BME280;26257;49.442;8.422;2022-08-30T00:49:39;100616.69;;;24.44;37.84
24045;BME280;26257;49.442;8.422;2022-08-30T00:52:06;100617.69;;;24.22;38.29
24045;BME280;26257;49.442;8.422;2022-08-30T00:54:34;100614.19;;;24.60;37.61
24045;BME280;26257;49.442;8.422;2022-08-30T00:57:01;100614.31;;;24.37;38.14
24045;BME280;26257;49.442;8.422;2022-08-30T00:59:27;100614.72;;;24.68;37.50
24045;BME280;26257;49.442;8.422;2022-08-30T01:01:53;100625.50;;;24.88;37.12
24045;BME280;26257;49.442;8.422;2022-08-30T01:04:21;100624.97;;;24.20;38.34
24045;BME280;26257;49.442;8.422;2022-08-30T01:06:47;100629.31;;;24.44;38.38
24045;BME280;26257;49.442;8.422;2022-08-30T01:09:13;100620.06;;;24.49;38.09
24045;BME280;26257;49.442;8.422;2022-08-30T01:11:40;100627.69;;;24.40;38.08
24045;BME280;26257;49.442;8.422;2022-08-30T01:14:07;100622.75;;;24.08;38.59
24045;BME280;26257;49.442;8.422;2022-08-30T01:16:36;100620.47;;;23.77;38.97
24045;BME280;26257;49.442;8.422;2022-08-30T01:19:03;100628.63;;;23.97;38.91
24045;BME280;26257;49.442;8.422;2022-08-30T01:21:38;100620.44;;;24.20;38.15
24045;BME280;26257;49.442;8.422;2022-08-30T01:24:07;100622.78;;;23.86;38.63
24045;BME280;26257;49.442;8.422;2022-08-30T01:26:34;100628.06;;;24.11;38.49
24045;BME280;26257;49.442;8.422;2022-08-30T01:29:06;100619.63;;;24.18;38.31
24045;BME280;26257;49.442;8.422;2022-08-30T01:31:33;100622.50;;;23.72;39.11
24045;BME280;26257;49.442;8.422;2022-08-30T01:34:02;100627.84;;;23.93;38.72
24045;BME280;26257;49.442;8.422;2022-08-30T01:36:30;100627.69;;;23.98;38.46
24045;BME280;26257;49.442;8.422;2022-08-30T01:38:56;100627.13;;;23.90;38.51
24045;BME280;26257;49.442;8.422;2022-08-30T01:41:34;100622.63;;;23.90;38.68
24045;BME280;26257;49.442;8.422;2022-08-30T01:44:03;100628.38;;;23.60;39.10
24045;BME280;26257;49.442;8.422;2022-08-30T01:46:32;100629.25;;;23.60;39.03
24045;BME280;26257;49.442;8.422;2022-08-30T01:49:03;100627.09;;;23.47;39.17
24045;BME280;26257;49.442;8.422;2022-08-30T01:51:29;100623.13;;;23.57;39.28
24045;BME280;26257;49.442;8.422;2022-08-30T01:53:55;100622.38;;;23.75;39.11
24045;BME280;26257;49.442;8.422;2022-08-30T01:56:23;100629.63;;;23.94;38.35
24045;BME280;26257;49.442;8.422;2022-08-30T01:58:50;100631.59;;;23.69;38.76
24045;BME280;26257;49.442;8.422;2022-08-30T02:01:18;100631.09;;;23.37;39.73
24045;BME280;26257;49.442;8.422;2022-08-30T02:03:44;100630.75;;;23.46;39.62
24045;BME280;26257;49.442;8.422;2022-08-30T02:06:12;100628.06;;;23.67;39.26
24045;BME280;26257;49.442;8.422;2022-08-30T02:08:38;100628.13;;;23.66;39.17
24045;BME280;26257;49.442;8.422;2022-08-30T02:11:05;100634.44;;;23.20;40.09
24045;BME280;26257;49.442;8.422;2022-08-30T02:13:31;100634.78;;;23.11;40.34
24045;BME280;26257;49.442;8.422;2022-08-30T02:15:56;100630.22;;;23.13;40.37
24045;BME280;26257;49.442;8.422;2022-08-30T02:18:23;100636.56;;;23.33;40.29
24045;BME280;26257;49.442;8.422;2022-08-30T02:20:49;100625.28;;;23.24;40.27
24045;BME280;26257;49.442;8.422;2022-08-30T02:23:15;100618.28;;;23.20;40.39
24045;BME280;26257;49.442;8.422;2022-08-30T02:25:40;100619.31;;;23.39;40.36
24045;BME280;26257;49.442;8.422;2022-08-30T02:28:06;100616.97;;;23.53;40.18
24045;BME280;26257;49.442;8.422;2022-08-30T02:30:32;100603.94;;;23.64;40.12
24045;BME280;26257;49.442;8.422;2022-08-30T02:32:57;100617.31;;;23.44;40.52
24045;BME280;26257;49.442;8.422;2022-08-30T02:35:22;100627.16;;;23.22;40.78
24045;BME280;26257;49.442;8.422;2022-08-30T02:37:48;100620.91;;;23.21;41.11
24045;BME280;26257;49.442;8.422;2022-08-30T02:40:14;100624.72;;;22.93;41.89
24045;BME280;26257;49.442;8.422;2022-08-30T02:42:39;100613.28;;;23.32;40.64
24045;BME280;26257;49.442;8.422;2022-08-30T02:45:06;100620.38;;;22.65;42.38
24045;BME280;26257;49.442;8.422;2022-08-30T02:47:32;100617.66;;;22.65;42.67
24045;BME280;26257;49.442;8.422;2022-08-30T03:09:01;100595.25;;;22.14;45.06
24045;BME280;26257;49.442;8.422;2022-08-30T03:11:27;100598.84;;;22.39;44.22
24045;BME280;26257;49.442;8.422;2022-08-30T03:13:52;100604.00;;;22.45;43.64
24045;BME280;26257;49.442;8.422;2022-08-30T03:16:18;100606.47;;;22.27;43.70
24045;BME280;26257;49.442;8.422;2022-08-30T03:18:43;100608.97;;;22.06;44.39
24045;BME280;26257;49.442;8.422;2022-08-30T03:21:14;100600.88;;;22.57;43.17
24045;BME280;26257;49.442;8.422;2022-08-30T03:23:40;100596.97;;;22.41;43.57
24045;BME280;26257;49.442;8.422;2022-08-30T03:26:07;100602.78;;;22.04;44.07
24045;BME280;26257;49.442;8.422;2022-08-30T03:28:33;100606.47;;;22.51;43.23
24045;BME280;26257;49.442;8.422;2022-08-30T03:30:58;100595.97;;;22.68;42.74
24045;BME280;26257;49.442;8.422;2022-08-30T03:33:24;100604.84;;;22.47;43.25
24045;BME280;26257;49.442;8.422;2022-08-30T03:35:50;100593.94;;;22.50;43.33
24045;BME280;26257;49.442;8.422;2022-08-30T03:38:15;100589.97;;;22.60;42.99
24045;BME280;26257;49.442;8.422;2022-08-30T03:40:41;100593.41;;;22.41;43.56
24045;BME280;26257;49.442;8.422;2022-08-30T03:43:07;100596.13;;;21.90;44.13
24045;BME280;26257;49.442;8.422;2022-08-30T03:45:32;100599.41;;;21.98;43.95
24045;BME280;26257;49.442;8.422;2022-08-30T03:47:58;100593.28;;;22.19;43.87
24045;BME280;26257;49.442;8.422;2022-08-30T03:50:23;100591.66;;;22.15;43.62
24045;BME280;26257;49.442;8.422;2022-08-30T03:52:49;100598.03;;;21.59;44.89
24045;BME280;26257;49.442;8.422;2022-08-30T03:55:15;100597.75;;;21.94;43.83
24045;BME280;26257;49.442;8.422;2022-08-30T03:57:40;100594.16;;;21.95;43.85
24045;BME280;26257;49.442;8.422;2022-08-30T04:00:08;100596.78;;;21.96;43.92
24045;BME280;26257;49.442;8.422;2022-08-30T04:02:33;100597.84;;;21.91;43.83
24045;BME280;26257;49.442;8.422;2022-08-30T04:04:58;100601.16;;;21.99;43.63
24045;BME280;26257;49.442;8.422;2022-08-30T04:07:24;100602.84;;;22.03;43.58
24045;BME280;26257;49.442;8.422;2022-08-30T04:09:49;100593.44;;;21.90;43.87
24045;BME280;26257;49.442;8.422;2022-08-30T04:12:15;100600.16;;;21.75;44.71
24045;BME280;26257;49.442;8.422;2022-08-30T04:14:40;100598.16;;;21.82;44.49
24045;BME280;26257;49.442;8.422;2022-08-30T04:17:05;100605.94;;;21.91;43.81
24045;BME280;26257;49.442;8.422;2022-08-30T04:19:31;100603.75;;;22.02;43.80
24045;BME280;26257;49.442;8.422;2022-08-30T04:21:56;100606.44;;;22.02;44.01
24045;BME280;26257;49.442;8.422;2022-08-30T04:24:22;100605.88;;;21.65;44.25
24045;BME280;26257;49.442;8.422;2022-08-30T04:26:47;100610.88;;;21.77;44.13
24045;BME280;26257;49.442;8.422;2022-08-30T04:29:13;100605.69;;;21.71;44.50
24045;BME280;26257;49.442;8.422;2022-08-30T04:31:41;100607.56;;;21.69;44.10
24045;BME280;26257;49.442;8.422;2022-08-30T04:34:09;100607.75;;;21.63;44.83
24045;BME280;26257;49.442;8.422;2022-08-30T04:36:34;100610.84;;;21.50;44.71
24045;BME280;26257;49.442;8.422;2022-08-30T04:38:59;100613.69;;;21.72;44.36
24045;BME280;26257;49.442;8.422;2022-08-30T04:41:25;100623.81;;;21.64;44.55
24045;BME280;26257;49.442;8.422;2022-08-30T04:43:50;100612.03;;;21.68;44.51
24045;BME280;26257;49.442;8.422;2022-08-30T04:46:17;100624.44;;;21.72;44.50
24045;BME280;26257;49.442;8.422;2022-08-30T04:48:43;100628.38;;;21.62;44.57
24045;BME280;26257;49.442;8.422;2022-08-30T04:51:12;100634.66;;;21.33;45.03
24045;BME280;26257;49.442;8.422;2022-08-30T04:53:39;100628.28;;;21.37;45.24
24045;BME280;26257;49.442;8.422;2022-08-30T04:56:10;100629.19;;;21.09;45.77
24045;BME280;26257;49.442;8.422;2022-08-30T04:58:36;100630.34;;;20.99;46.05
24045;BME280;26257;49.442;8.422;2022-08-30T05:01:03;100633.44;;;21.43;45.18
24045;BME280;26257;49.442;8.422;2022-08-30T05:03:28;100632.06;;;21.30;45.28
24045;BME280;26257;49.442;8.422;2022-08-30T05:05:54;100638.06;;;21.40;45.07
24045;BME280;26257;49.442;8.422;2022-08-30T05:08:20;100630.81;;;21.70;44.55
24045;BME280;26257;49.442;8.422;2022-08-30T05:10:47;100632.09;;;21.86;44.18
24045;BME280;26257;49.442;8.422;2022-08-30T05:13:14;100639.16;;;21.90;43.78
24045;BME280;26257;49.442;8.422;2022-08-30T05:15:40;100641.06;;;21.29;44.91
24045;BME280;26257;49.442;8.422;2022-08-30T05:18:08;100645.09;;;21.72;44.68
24045;BME280;26257;49.442;8.422;2022-08-30T05:20:34;100639.22;;;21.59;44.56
24045;BME280;26257;49.442;8.422;2022-08-30T05:23:01;100646.94;;;21.42;44.99
24045;BME280;26257;49.442;8.422;2022-08-30T05:25:32;100648.81;;;21.68;44.81
24045;BME280;26257;49.442;8.422;2022-08-30T05:27:58;100654.69;;;21.52;45.03
24045;BME280;26257;49.442;8.422;2022-08-30T05:30:26;100652.63;;;21.61;45.12
24045;BME280;26257;49.442;8.422;2022-08-30T05:32:52;100661.63;;;21.60;45.04
24045;BME280;26257;49.442;8.422;2022-08-30T05:35:19;100664.94;;;21.68;44.39
24045;BME280;26257;49.442;8.422;2022-08-30T05:37:45;100663.13;;;21.97;43.82
24045;BME280;26257;49.442;8.422;2022-08-30T05:40:12;100663.47;;;21.58;44.39
24045;BME280;26257;49.442;8.422;2022-08-30T05:42:38;100664.22;;;21.33;45.25
24045;BME280;26257;49.442;8.422;2022-08-30T05:45:07;100662.78;;;21.79;44.71
24045;BME280;26257;49.442;8.422;2022-08-30T05:47:32;100653.53;;;21.89;44.40
24045;BME280;26257;49.442;8.422;2022-08-30T05:49:58;100654.09;;;21.71;44.24
24045;BME280;26257;49.442;8.422;2022-08-30T05:52:23;100653.84;;;21.78;44.84
24045;BME280;26257;49.442;8.422;2022-08-30T05:54:54;100654.69;;;22.08;43.77
24045;BME280;26257;49.442;8.422;2022-08-30T05:57:24;100656.41;;;21.53;45.18
24045;BME280;26257;49.442;8.422;2022-08-30T05:59:49;100656.94;;;21.94;44.39
24045;BME280;26257;49.442;8.422;2022-08-30T06:02:15;100654.16;;;22.23;44.01
24045;BME280;26257;49.442;8.422;2022-08-30T06:04:41;100649.75;;;22.21;43.46
24045;BME280;26257;49.442;8.422;2022-08-30T06:07:07;100638.28;;;22.16;44.07
24045;BME280;26257;49.442;8.422;2022-08-30T06:09:32;100653.06;;;22.53;43.50
24045;BME280;26257;49.442;8.422;2022-08-30T06:11:58;100648.81;;;22.72;43.24
24045;BME280;26257;49.442;8.422;2022-08-30T06:14:23;100644.63;;;22.89;42.66
24045;BME280;26257;49.442;8.422;2022-08-30T06:16:50;100644.38;;;23.18;42.04
24045;BME280;26257;49.442;8.422;2022-08-30T06:19:17;100644.84;;;22.83;42.60
24045;BME280;26257;49.442;8.422;2022-08-30T06:21:46;100640.78;;;22.71;42.94
24045;BME280;26257;49.442;8.422;2022-08-30T06:24:12;100659.06;;;22.63;43.20
24045;BME280;26257;49.442;8.422;2022-08-30T06:26:40;100650.22;;;22.33;43.92
24045;BME280;26257;49.442;8.422;2022-08-30T06:29:07;100653.63;;;22.38;44.12
24045;BME280;26257;49.442;8.422;2022-08-30T06:31:32;100653.41;;;22.94;42.73
24045;BME280;26257;49.442;8.422;2022-08-30T06:33:58;100644.66;;;23.33;42.19
24045;BME280;26257;49.442;8.422;2022-08-30T06:36:24;100647.38;;;23.33;41.74
24045;BME280;26257;49.442;8.422;2022-08-30T06:38:52;100647.34;;;23.12;42.40
24045;BME280;26257;49.442;8.422;2022-08-30T06:41:20;100649.06;;;23.13;42.75
24045;BME280;26257;49.442;8.422;2022-08-30T06:43:47;100647.38;;;23.33;41.96
24045;BME280;26257;49.442;8.422;2022-08-30T06:46:15;100643.19;;;23.71;41.70
24045;BME280;26257;49.442;8.422;2022-08-30T06:48:41;100639.16;;;23.81;41.50
24045;BME280;26257;49.442;8.422;2022-08-30T06:51:07;100644.19;;;23.90;41.24
24045;BME280;26257;49.442;8.422;2022-08-30T06:53:33;100651.84;;;23.79;41.65
24045;BME280;26257;49.442;8.422;2022-08-30T06:56:09;100651.84;;;23.79;40.98
24045;BME280;26257;49.442;8.422;2022-08-30T06:58:37;100663.25;;;23.18;42.72
24045;BME280;26257;49.442;8.422;2022-08-30T07:01:04;100665.50;;;23.07;43.04
24045;BME280;26257;49.442;8.422;2022-08-30T07:03:30;100666.28;;;23.57;42.51
24045;BME280;26257;49.442;8.422;2022-08-30T07:05:56;100662.97;;;24.35;40.22
24045;BME280;26257;49.442;8.422;2022-08-30T07:08:22;100662.59;;;24.24;40.20
24045;BME280;26257;49.442;8.422;2022-08-30T07:10:50;100668.88;;;24.45;39.95
24045;BME280;26257;49.442;8.422;2022-08-30T07:13:16;100666.84;;;24.90;39.19
24045;BME280;26257;49.442;8.422;2022-08-30T07:15:43;100665.38;;;24.83;39.15
24045;BME280;26257;49.442;8.422;2022-08-30T07:18:10;100665.81;;;25.32;38.73
24045;BME280;26257;49.442;8.422;2022-08-30T07:20:54;100659.69;;;24.69;39.80
24045;BME280;26257;49.442;8.422;2022-08-30T07:23:20;100663.34;;;24.88;39.54
24045;BME280;26257;49.442;8.422;2022-08-30T07:25:45;100664.97;;;25.31;38.79
24045;BME280;26257;49.442;8.422;2022-08-30T07:28:11;100674.28;;;25.05;39.39
24045;BME280;26257;49.442;8.422;2022-08-30T07:30:37;100669.69;;;25.65;38.37
24045;BME280;26257;49.442;8.422;2022-08-30T07:33:03;100666.00;;;25.29;38.76
24045;BME280;26257;49.442;8.422;2022-08-30T07:35:28;100673.78;;;25.55;38.51
24045;BME280;26257;49.442;8.422;2022-08-30T07:37:54;100676.50;;;25.55;38.79
24045;BME280;26257;49.442;8.422;2022-08-30T07:40:19;100668.25;;;26.12;37.67
24045;BME280;26257;49.442;8.422;2022-08-30T07:42:44;100672.31;;;26.02;37.95
24045;BME280;26257;49.442;8.422;2022-08-30T07:45:11;100662.19;;;26.24;37.51
24045;BME280;26257;49.442;8.422;2022-08-30T07:47:36;100670.81;;;26.67;37.06
24045;BME280;26257;49.442;8.422;2022-08-30T07:50:04;100669.22;;;26.10;37.67
24045;BME280;26257;49.442;8.422;2022-08-30T07:52:29;100668.56;;;26.75;36.41
24045;BME280;26257;49.442;8.422;2022-08-30T07:54:56;100665.34;;;27.01;36.25
24045;BME280;26257;49.442;8.422;2022-08-30T07:57:22;100665.31;;;26.85;36.13
24045;BME280;26257;49.442;8.422;2022-08-30T07:59:48;100660.13;;;26.29;36.99
24045;BME280;26257;49.442;8.422;2022-08-30T08:02:13;100661.28;;;26.77;36.22
24045;BME280;26257;49.442;8.422;2022-08-30T08:04:38;100661.66;;;26.86;36.09
24045;BME280;26257;49.442;8.422;2022-08-30T08:07:04;100666.63;;;27.11;36.09
24045;BME280;26257;49.442;8.422;2022-08-30T08:09:30;100668.22;;;27.31;35.67
24045;BME280;26257;49.442;8.422;2022-08-30T08:11:55;100666.13;;;27.20;35.65
24045;BME280;26257;49.442;8.422;2022-08-30T08:14:21;100652.09;;;27.12;35.59
24045;BME280;26257;49.442;8.422;2022-08-30T08:16:48;100665.84;;;27.58;35.31
24045;BME280;26257;49.442;8.422;2022-08-30T08:19:13;100654.41;;;27.35;35.09
24045;BME280;26257;49.442;8.422;2022-08-30T08:21:39;100651.50;;;27.55;35.26
24045;BME280;26257;49.442;8.422;2022-08-30T08:24:05;100643.41;;;28.01;34.31
24045;BME280;26257;49.442;8.422;2022-08-30T08:26:33;100653.88;;;28.38;33.40
24045;BME280;26257;49.442;8.422;2022-08-30T08:28:58;100654.16;;;28.63;33.01
24045;BME280;26257;49.442;8.422;2022-08-30T08:31:25;100653.22;;;28.93;32.57
24045;BME280;26257;49.442;8.422;2022-08-30T08:33:53;100652.06;;;28.97;32.35
24045;BME280;26257;49.442;8.422;2022-08-30T08:36:18;100655.81;;;29.24;31.87
24045;BME280;26257;49.442;8.422;2022-08-30T08:38:44;100644.59;;;29.14;32.02
24045;BME280;26257;49.442;8.422;2022-08-30T08:43:59;100640.81;;;29.31;31.91
24045;BME280;26257;49.442;8.422;2022-08-30T08:46:33;100652.84;;;29.41;31.61
24045;BME280;26257;49.442;8.422;2022-08-30T09:08:43;100634.91;;;29.24;32.70
24045;BME280;26257;49.442;8.422;2022-08-30T09:11:10;100632.97;;;29.67;32.28
24045;BME280;26257;49.442;8.422;2022-08-30T09:13:41;100634.28;;;30.03;31.35
24045;BME280;26257;49.442;8.422;2022-08-30T09:16:07;100627.03;;;29.75;31.17
24045;BME280;26257;49.442;8.422;2022-08-30T09:21:06;100634.94;;;29.65;32.05
24045;BME280;26257;49.442;8.422;2022-08-30T09:23:32;100624.81;;;29.81;31.50
24045;BME280;26257;49.442;8.422;2022-08-30T09:26:04;100628.88;;;29.88;31.76
24045;BME280;26257;49.442;8.422;2022-08-30T09:28:42;100631.31;;;29.24;32.69
24045;BME280;26257;49.442;8.422;2022-08-30T09:31:30;100627.53;;;30.08;31.69
24045;BME280;26257;49.442;8.422;2022-08-30T09:34:06;100628.00;;;30.67;31.04
24045;BME280;26257;49.442;8.422;2022-08-30T09:37:01;100622.88;;;30.87;30.19
24045;BME280;26257;49.442;8.422;2022-08-30T09:39:34;100621.78;;;31.40;29.10
24045;BME280;26257;49.442;8.422;2022-08-30T09:42:18;100619.28;;;30.49;30.34
24045;BME280;26257;49.442;8.422;2022-08-30T09:44:44;100617.78;;;31.21;29.94
24045;BME280;26257;49.442;8.422;2022-08-30T09:47:28;100605.31;;;31.29;30.00
24045;BME280;26257;49.442;8.422;2022-08-30T09:50:17;100612.47;;;30.94;30.36
24045;BME280;26257;49.442;8.422;2022-08-30T09:53:15;100608.72;;;31.69;29.13
24045;BME280;26257;49.442;8.422;2022-08-30T09:56:05;100596.06;;;32.04;28.60
24045;BME280;26257;49.442;8.422;2022-08-30T10:06:31;100586.13;;;33.06;25.89
24045;BME280;26257;49.442;8.422;2022-08-30T10:11:53;100580.06;;;35.44;23.24
24045;BME280;26257;49.442;8.422;2022-08-30T10:19:59;100583.13;;;36.67;21.65
24045;BME280;26257;49.442;8.422;2022-08-30T10:22:45;100582.59;;;35.17;22.89
24045;BME280;26257;49.442;8.422;2022-08-30T10:25:16;100570.38;;;36.37;21.42
24045;BME280;26257;49.442;8.422;2022-08-30T10:28:06;100572.53;;;36.72;21.22
24045;BME280;26257;49.442;8.422;2022-08-30T10:30:29;100569.00;;;37.26;21.05
24045;BME280;26257;49.442;8.422;2022-08-30T10:33:04;100569.81;;;36.34;21.77
24045;BME280;26257;49.442;8.422;2022-08-30T10:35:36;100567.91;;;36.63;21.52
24045;BME280;26257;49.442;8.422;2022-08-30T10:38:12;100565.06;;;37.01;21.42
24045;BME280;26257;49.442;8.422;2022-08-30T10:40:42;100560.06;;;39.26;19.06
24045;BME280;26257;49.442;8.422;2022-08-30T10:45:59;100559.97;;;40.75;17.56
24045;BME280;26257;49.442;8.422;2022-08-30T10:48:34;100562.41;;;40.70;17.44
24045;BME280;26257;49.442;8.422;2022-08-30T10:51:17;100557.09;;;42.23;16.13
24045;BME280;26257;49.442;8.422;2022-08-30T10:53:50;100560.38;;;43.01;15.26
24045;BME280;26257;49.442;8.422;2022-08-30T10:56:20;100558.28;;;42.66;15.97
24045;BME280;26257;49.442;8.422;2022-08-30T10:58:46;100554.47;;;41.68;16.52
24045;BME280;26257;49.442;8.422;2022-08-30T11:01:46;100553.00;;;39.90;17.93
24045;BME280;26257;49.442;8.422;2022-08-30T11:07:18;100547.59;;;41.56;16.42
24045;BME280;26257;49.442;8.422;2022-08-30T11:10:19;100537.50;;;43.50;15.05
24045;BME280;26257;49.442;8.422;2022-08-30T11:15:19;100542.09;;;44.50;14.60
24045;BME280;26257;49.442;8.422;2022-08-30T11:20:51;100550.69;;;38.94;18.66
24045;BME280;26257;49.442;8.422;2022-08-30T11:23:36;100540.50;;;41.54;16.48
24045;BME280;26257;49.442;8.422;2022-08-30T11:26:10;100538.91;;;43.96;15.28
24045;BME280;26257;49.442;8.422;2022-08-30T11:41:39;100527.88;;;43.67;14.78
24045;BME280;26257;49.442;8.422;2022-08-30T11:46:48;100530.91;;;43.36;15.07
24045;BME280;26257;49.442;8.422;2022-08-30T12:00:39;100521.41;;;42.72;15.91
24045;BME280;26257;49.442;8.422;2022-08-30T12:03:28;100521.53;;;42.93;15.27
24045;BME280;26257;49.442;8.422;2022-08-30T12:05:56;100519.94;;;41.79;16.35
24045;BME280;26257;49.442;8.422;2022-08-30T12:16:08;100501.84;;;40.34;17.85
24045;BME280;26257;49.442;8.422;2022-08-30T12:26:29;100501.91;;;41.44;16.56
24045;BME280;26257;49.442;8.422;2022-08-30T12:34:07;100493.78;;;41.04;16.82
24045;BME280;26257;49.442;8.422;2022-08-30T12:36:38;100488.44;;;42.69;15.53
24045;BME280;26257;49.442;8.422;2022-08-30T12:41:33;100494.78;;;41.11;17.27
24045;BME280;26257;49.442;8.422;2022-08-30T12:43:59;100482.72;;;42.11;16.33
24045;BME280;26257;49.442;8.422;2022-08-30T12:46:26;100476.53;;;43.19;15.28
24045;BME280;26257;49.442;8.422;2022-08-30T12:48:52;100480.00;;;42.25;15.86
24045;BME280;26257;49.442;8.422;2022-08-30T12:51:47;100468.59;;;42.87;15.89
24045;BME280;26257;49.442;8.422;2022-08-30T12:57:00;100477.72;;;42.81;15.55
24045;BME280;26257;49.442;8.422;2022-08-30T12:59:48;100473.69;;;40.94;17.30
24045;BME280;26257;49.442;8.422;2022-08-30T13:02:40;100474.53;;;41.02;17.21
24045;BME280;26257;49.442;8.422;2022-08-30T13:05:29;100462.34;;;44.07;14.73
24045;BME280;26257;49.442;8.422;2022-08-30T13:10:51;100461.72;;;44.54;14.11
24045;BME280;26257;49.442;8.422;2022-08-30T13:13:46;100449.91;;;44.86;14.23
24045;BME280;26257;49.442;8.422;2022-08-30T13:18:53;100449.56;;;44.12;14.66
24045;BME280;26257;49.442;8.422;2022-08-30T13:21:32;100438.03;;;43.73;15.20
24045;BME280;26257;49.442;8.422;2022-08-30T13:24:02;100444.91;;;44.75;14.23
24045;BME280;26257;49.442;8.422;2022-08-30T13:26:34;100439.66;;;44.59;14.61
24045;BME280;26257;49.442;8.422;2022-08-30T13:29:05;100437.78;;;43.89;14.56
24045;BME280;26257;49.442;8.422;2022-08-30T13:31:31;100426.22;;;43.50;15.41
24045;BME280;26257;49.442;8.422;2022-08-30T13:33:58;100423.69;;;43.55;15.09
24045;BME280;26257;49.442;8.422;2022-08-30T13:36:28;100427.41;;;44.26;14.55
24045;BME280;26257;49.442;8.422;2022-08-30T13:38:55;100426.28;;;44.48;14.23
24045;BME280;26257;49.442;8.422;2022-08-30T13:41:21;100420.66;;;43.50;15.00
24045;BME280;26257;49.442;8.422;2022-08-30T13:43:47;100428.84;;;42.57;15.48
24045;BME280;26257;49.442;8.422;2022-08-30T13:46:14;100419.94;;;43.27;15.38
24045;BME280;26257;49.442;8.422;2022-08-30T13:48:40;100421.63;;;42.77;15.69
24045;BME280;26257;49.442;8.422;2022-08-30T13:51:06;100408.84;;;41.42;16.50
24045;BME280;26257;49.442;8.422;2022-08-30T13:53:34;100410.34;;;40.91;16.90
24045;BME280;26257;49.442;8.422;2022-08-30T13:56:00;100408.97;;;41.71;16.37
24045;BME280;26257;49.442;8.422;2022-08-30T13:58:26;100407.91;;;42.32;15.63
24045;BME280;26257;49.442;8.422;2022-08-30T14:00:51;100391.00;;;42.56;15.87
24045;BME280;26257;49.442;8.422;2022-08-30T14:03:17;100401.69;;;41.93;16.09
24045;BME280;26257;49.442;8.422;2022-08-30T14:05:43;100392.59;;;41.61;16.40
24045;BME280;26257;49.442;8.422;2022-08-30T14:08:10;100391.25;;;42.90;15.72
24045;BME280;26257;49.442;8.422;2022-08-30T14:10:37;100393.81;;;43.42;15.23
24045;BME280;26257;49.442;8.422;2022-08-30T14:13:03;100387.41;;;43.84;14.92
24045;BME280;26257;49.442;8.422;2022-08-30T14:15:36;100384.28;;;45.37;13.62
24045;BME280;26257;49.442;8.422;2022-08-30T14:18:02;100389.22;;;42.40;15.71
24045;BME280;26257;49.442;8.422;2022-08-30T14:20:28;100381.72;;;43.14;15.02
24045;BME280;26257;49.442;8.422;2022-08-30T14:22:53;100381.56;;;42.42;15.58
24045;BME280;26257;49.442;8.422;2022-08-30T14:25:19;100372.81;;;44.03;14.69
24045;BME280;26257;49.442;8.422;2022-08-30T14:27:44;100370.31;;;45.24;13.84
24045;BME280;26257;49.442;8.422;2022-08-30T14:30:10;100369.09;;;45.60;13.17
24045;BME280;26257;49.442;8.422;2022-08-30T14:32:35;100363.59;;;43.75;14.97
24045;BME280;26257;49.442;8.422;2022-08-30T14:35:01;100355.94;;;45.27;14.28
24045;BME280;26257;49.442;8.422;2022-08-30T14:37:26;100356.25;;;45.91;13.01
24045;BME280;26257;49.442;8.422;2022-08-30T14:39:51;100346.75;;;44.79;13.96
24045;BME280;26257;49.442;8.422;2022-08-30T14:42:17;100348.06;;;44.90;13.89
24045;BME280;26257;49.442;8.422;2022-08-30T14:44:44;100348.97;;;44.97;13.51
24045;BME280;26257;49.442;8.422;2022-08-30T14:47:09;100348.78;;;42.82;15.40
24045;BME280;26257;49.442;8.422;2022-08-30T14:49:35;100353.72;;;41.16;16.46
24045;BME280;26257;49.442;8.422;2022-08-30T14:52:01;100347.91;;;40.09;17.43
24045;BME280;26257;49.442;8.422;2022-08-30T14:54:29;100361.50;;;38.04;19.30
24045;BME280;26257;49.442;8.422;2022-08-30T14:56:55;100346.03;;;39.69;18.15
24045;BME280;26257;49.442;8.422;2022-08-30T14:59:21;100340.44;;;40.73;16.48
24045;BME280;26257;49.442;8.422;2022-08-30T15:01:47;100337.81;;;41.10;16.56
24045;BME280;26257;49.442;8.422;2022-08-30T15:04:13;100327.69;;;41.85;16.07
24045;BME280;26257;49.442;8.422;2022-08-30T15:06:41;100324.75;;;42.74;15.79